Time,TemperatureF,DewpointF,PressureIn,WindDirection,WindDirectionDegrees,WindSpeedMPH,WindSpeedGustMPH,Humidity,HourlyPrecipIn,Conditions,Clouds,dailyrainin,SoftwareType,DateUTC
2013-02-05 00:00:00,-6.4,-10.3,30.03,NNE,21,0.0,0.0,82,0.00,,SKC,0.00,VWS V14.00,2013-02-05 05:00:00,
2013-02-05 00:02:00,15.4,9.0,29.92,NNE,24,0.0,0.0,75,0.00,,OVC,0.00,VWS V14.00,2013-02-05 05:02:00,
2013-02-05 00:05:00,-6.5,-10.4,30.04,NNE,21,0.0,0.0,83,0.00,,SKC,0.00,VWS V14.00,2013-02-05 05:05:00,
2013-02-05 00:10:00,-6.5,-10.2,30.04,NNE,21,0.0,0.0,84,0.00,,SKC,0.00,VWS V14.00,2013-02-05 05:10:00,
2013-02-05 00:15:00,-6.3,-9.8,30.04,NNE,21,0.0,0.0,84,0.00,,SKC,0.00,VWS V14.00,2013-02-05 05:15:00,
2013-02-05 00:20:00,-6.2,-9.8,30.04,NNE,21,0.0,0.0,84,0.00,,SKC,0.00,VWS V14.00,2013-02-05 05:20:00,
2013-02-05 00:25:00,-6.2,-9.8,30.04,NNE,21,0.0,0.0,84,0.00,,SKC,0.00,VWS V14.00,2013-02-05 05:25:00,
2013-02-05 00:30:00,-6.5,-10.2,30.04,NNE,21,0.0,0.0,83,0.00,,SKC,0.00,VWS V14.00,2013-02-05 05:30:00,
2013-02-05 00:35:00,-7.0,-10.4,30.04,NNE,21,0.0,0.0,84,0.00,,SKC,0.00,VWS V14.00,2013-02-05 05:35:00,
2013-02-05 00:40:00,-7.2,-10.3,30.04,NNE,21,0.0,0.0,86,0.00,,SKC,0.00,VWS V14.00,2013-02-05 05:40:00,
2013-02-05 00:45:00,-7.5,-10.9,30.05,NNE,21,0.0,0.0,85,0.00,,SKC,0.00,VWS V14.00,2013-02-05 05:45:00,
2013-02-05 00:50:00,-8.0,-11.5,30.05,NNE,21,0.0,0.0,84,0.00,,SKC,0.00,VWS V14.00,2013-02-05 05:50:00,
2013-02-05 00:55:00,-8.3,-11.5,30.05,NNE,21,0.0,0.0,85,0.00,,SKC,0.00,VWS V14.00,2013-02-05 05:55:00,
2013-02-05 01:00:00,-8.0,-10.8,30.05,NNE,21,0.0,0.0,87,0.00,,SKC,0.00,VWS V14.00,2013-02-05 06:00:00,
2013-02-05 01:05:00,-7.2,-10.0,30.05,NNE,21,0.0,0.0,87,0.00,,SKC,0.00,VWS V14.00,2013-02-05 06:05:00,
2013-02-05 01:10:00,-7.3,-10.4,30.05,NNE,21,0.0,0.0,86,0.00,,SKC,0.00,VWS V14.00,2013-02-05 06:10:00,
2013-02-05 01:15:00,-7.3,-10.4,30.05,NNE,21,0.0,0.0,86,0.00,,SKC,0.00,VWS V14.00,2013-02-05 06:15:00,
2013-02-05 01:20:00,-7.4,-10.6,30.05,NNE,21,0.0,0.0,85,0.00,,SKC,0.00,VWS V14.00,2013-02-05 06:20:00,
2013-02-05 01:25:00,-7.5,-10.6,30.06,NNE,21,0.0,0.0,86,0.00,,SKC,0.00,VWS V14.00,2013-02-05 06:25:00,
2013-02-05 01:30:00,-8.0,-11.3,30.06,NNE,21,0.0,0.0,85,0.00,,SKC,0.00,VWS V14.00,2013-02-05 06:30:00,
2013-02-05 01:35:00,-8.2,-11.5,30.06,NNE,21,0.0,0.0,85,0.00,,SKC,0.00,VWS V14.00,2013-02-05 06:35:00,
2013-02-05 01:40:00,-8.3,-11.7,30.06,NNE,21,0.0,0.0,85,0.00,,SKC,0.00,VWS V14.00,2013-02-05 06:40:00,
2013-02-05 01:45:00,-8.4,-11.8,30.06,NNE,21,0.0,0.0,85,0.00,,SKC,0.00,VWS V14.00,2013-02-05 06:45:00,
2013-02-05 01:50:00,-8.6,-12.0,30.06,NNE,21,0.0,0.0,85,0.00,,SKC,0.00,VWS V14.00,2013-02-05 06:50:00,
2013-02-05 01:55:00,-8.4,-11.8,30.06,NNE,21,0.0,0.0,85,0.00,,SKC,0.00,VWS V14.00,2013-02-05 06:55:00,
2013-02-05 02:00:00,-8.5,-11.8,30.06,NNE,21,0.0,0.0,85,0.00,,SKC,0.00,VWS V14.00,2013-02-05 07:00:00,
2013-02-05 02:05:00,-8.6,-11.5,30.06,NNE,21,0.0,0.0,86,0.00,,SKC,0.00,VWS V14.00,2013-02-05 07:05:00,
2013-02-05 02:10:00,-8.1,-10.8,30.06,NNE,21,0.0,0.0,87,0.00,,SKC,0.00,VWS V14.00,2013-02-05 07:10:00,
2013-02-05 02:15:00,-7.9,-10.9,30.06,NNE,21,0.0,0.0,86,0.00,,SKC,0.00,VWS V14.00,2013-02-05 07:15:00,
2013-02-05 02:20:00,-8.3,-11.4,30.07,NNE,21,0.0,0.0,86,0.00,,SKC,0.00,VWS V14.00,2013-02-05 07:20:00,
2013-02-05 02:25:00,-8.2,-11.4,30.07,NNE,21,0.0,0.0,85,0.00,,SKC,0.00,VWS V14.00,2013-02-05 07:25:00,
2013-02-05 02:30:00,-8.5,-11.8,30.07,NNE,21,0.0,0.0,85,0.00,,SKC,0.00,VWS V14.00,2013-02-05 07:30:00,
2013-02-05 02:35:00,-8.8,-12.1,30.06,NNE,21,0.0,0.0,85,0.00,,SKC,0.00,VWS V14.00,2013-02-05 07:35:00,
2013-02-05 02:40:00,-9.1,-12.4,30.06,NNE,21,0.0,0.0,85,0.00,,SKC,0.00,VWS V14.00,2013-02-05 07:40:00,
2013-02-05 02:46:00,-9.3,-12.7,30.06,NNE,21,0.0,0.0,84,0.00,,SKC,0.00,VWS V14.00,2013-02-05 07:46:00,
2013-02-05 02:51:00,-9.5,-12.8,30.06,NNE,21,0.0,0.0,85,0.00,,SKC,0.00,VWS V14.00,2013-02-05 07:51:00,
2013-02-05 02:56:00,-9.5,-12.6,30.06,NNE,21,0.0,0.0,86,0.00,,SKC,0.00,VWS V14.00,2013-02-05 07:56:00,
2013-02-05 03:00:00,-9.6,-12.8,30.06,NNE,21,0.0,0.0,86,0.00,,SCT,0.00,VWS V14.00,2013-02-05 08:00:00,
2013-02-05 03:01:00,-9.4,-12.5,30.06,NNE,21,0.0,0.0,86,0.00,,SKC,0.00,VWS V14.00,2013-02-05 08:01:00,
2013-02-05 03:06:00,-9.7,-12.9,30.06,NNE,21,0.0,0.0,85,0.00,,SKC,0.00,VWS V14.00,2013-02-05 08:06:00,
2013-02-05 03:11:00,-9.7,-12.9,30.06,NNE,21,0.0,0.0,85,0.00,,SKC,0.00,VWS V14.00,2013-02-05 08:11:00,
2013-02-05 03:16:00,-9.7,-13.0,30.07,NNE,21,0.0,0.0,85,0.00,,SKC,0.00,VWS V14.00,2013-02-05 08:16:00,
2013-02-05 03:21:00,-10.2,-13.6,30.06,NNE,21,0.0,0.0,84,0.00,,SKC,0.00,VWS V14.00,2013-02-05 08:21:00,
2013-02-05 03:26:00,-10.4,-13.9,30.06,NNE,21,0.0,0.0,84,0.00,,SKC,0.00,VWS V14.00,2013-02-05 08:26:00,
2013-02-05 03:30:00,-10.4,-14.0,30.06,NNE,21,0.0,0.0,84,0.00,,SCT,0.00,VWS V14.00,2013-02-05 08:30:00,
2013-02-05 03:31:00,-10.7,-14.2,30.06,NNE,21,0.0,0.0,84,0.00,,SKC,0.00,VWS V14.00,2013-02-05 08:31:00,
2013-02-05 03:36:00,-10.8,-14.3,30.06,NNE,21,0.0,0.0,84,0.00,,SKC,0.00,VWS V14.00,2013-02-05 08:36:00,
2013-02-05 03:41:00,-11.0,-14.5,30.06,NNE,21,0.0,0.0,84,0.00,,SKC,0.00,VWS V14.00,2013-02-05 08:41:00,
2013-02-05 03:46:00,-11.0,-14.6,30.06,NNE,21,0.0,0.0,84,0.00,,SKC,0.00,VWS V14.00,2013-02-05 08:46:00,
2013-02-05 03:51:00,-11.3,-14.9,30.07,NNE,21,0.0,0.0,83,0.00,,SKC,0.00,VWS V14.00,2013-02-05 08:51:00,
2013-02-05 03:56:00,-11.3,-14.9,30.07,NNE,21,0.0,0.0,83,0.00,,SKC,0.00,VWS V14.00,2013-02-05 08:56:00,
2013-02-05 04:00:00,-11.3,-14.9,30.07,NNE,21,0.0,0.0,83,0.00,,SCT,0.00,VWS V14.00,2013-02-05 09:00:00,
2013-02-05 04:01:00,-11.2,-14.8,30.07,NNE,21,0.0,0.0,84,0.00,,SKC,0.00,VWS V14.00,2013-02-05 09:01:00,
2013-02-05 04:06:00,-11.4,-15.0,30.07,NNE,21,0.0,0.0,84,0.00,,SKC,0.00,VWS V14.00,2013-02-05 09:06:00,
2013-02-05 04:11:00,-10.8,-14.3,30.07,NNE,21,0.0,0.0,84,0.00,,SKC,0.00,VWS V14.00,2013-02-05 09:11:00,
2013-02-05 04:16:00,-10.9,-14.4,30.07,NNE,21,0.0,0.0,84,0.00,,SKC,0.00,VWS V14.00,2013-02-05 09:16:00,
2013-02-05 04:21:00,-10.6,-14.1,30.07,NNE,21,0.0,0.0,84,0.00,,SKC,0.00,VWS V14.00,2013-02-05 09:21:00,
2013-02-05 04:26:00,-10.5,-14.0,30.07,NNE,21,0.0,0.0,84,0.00,,SKC,0.00,VWS V14.00,2013-02-05 09:26:00,
2013-02-05 04:30:00,-10.5,-14.0,30.07,NNE,21,0.0,0.0,84,0.00,,SCT,0.00,VWS V14.00,2013-02-05 09:30:00,
2013-02-05 04:31:00,-10.6,-14.1,30.07,NNE,21,0.0,0.0,84,0.00,,SKC,0.00,VWS V14.00,2013-02-05 09:31:00,
2013-02-05 04:36:00,-10.7,-14.1,30.07,NNE,21,0.0,0.0,84,0.00,,SKC,0.00,VWS V14.00,2013-02-05 09:36:00,
2013-02-05 04:41:00,-10.7,-14.2,30.07,NNE,21,0.0,0.0,84,0.00,,SKC,0.00,VWS V14.00,2013-02-05 09:41:00,
2013-02-05 04:46:00,-10.9,-14.4,30.07,NNE,21,0.0,0.0,84,0.00,,SKC,0.00,VWS V14.00,2013-02-05 09:46:00,
2013-02-05 04:51:00,-10.9,-14.3,30.07,NNE,21,0.0,0.0,84,0.00,,SKC,0.00,VWS V14.00,2013-02-05 09:51:00,
2013-02-05 04:56:00,-10.9,-14.3,30.07,NNE,21,0.0,0.0,84,0.00,,SKC,0.00,VWS V14.00,2013-02-05 09:56:00,
2013-02-05 05:00:00,-10.9,-14.3,30.07,NNE,21,0.0,0.0,84,0.00,,SCT,0.00,VWS V14.00,2013-02-05 10:00:00,
2013-02-05 05:01:00,-10.9,-14.3,30.07,NNE,21,0.0,0.0,84,0.00,,SKC,0.00,VWS V14.00,2013-02-05 10:01:00,
2013-02-05 05:06:00,-10.8,-14.3,30.08,NNE,21,0.0,0.0,84,0.00,,SKC,0.00,VWS V14.00,2013-02-05 10:06:00,
2013-02-05 05:11:00,-11.0,-14.5,30.08,NNE,21,0.0,0.0,84,0.00,,SKC,0.00,VWS V14.00,2013-02-05 10:11:00,
2013-02-05 05:16:00,-10.9,-14.1,30.08,NNE,21,0.0,0.0,85,0.00,,SKC,0.00,VWS V14.00,2013-02-05 10:16:00,
2013-02-05 05:21:00,-10.8,-14.1,30.07,NNE,21,0.0,0.0,85,0.00,,SKC,0.00,VWS V14.00,2013-02-05 10:21:00,
2013-02-05 05:26:00,-11.0,-14.5,30.08,NNE,21,0.0,0.0,84,0.00,,SKC,0.00,VWS V14.00,2013-02-05 10:26:00,
2013-02-05 05:30:00,-11.0,-14.5,30.08,NNE,21,0.0,0.0,84,0.00,,SCT,0.00,VWS V14.00,2013-02-05 10:30:00,
2013-02-05 05:31:00,-11.2,-14.6,30.07,NNE,21,0.0,0.0,84,0.00,,SKC,0.00,VWS V14.00,2013-02-05 10:31:00,
2013-02-05 05:36:00,-11.4,-14.9,30.08,NNE,21,0.0,0.0,84,0.00,,SKC,0.00,VWS V14.00,2013-02-05 10:36:00,
2013-02-05 05:41:00,-11.7,-15.2,30.07,NNE,21,0.0,0.0,84,0.00,,SKC,0.00,VWS V14.00,2013-02-05 10:41:00,
2013-02-05 05:46:00,-12.2,-15.5,30.07,NNE,21,0.0,0.0,85,0.00,,SKC,0.00,VWS V14.00,2013-02-05 10:46:00,
2013-02-05 05:51:00,-12.3,-15.6,30.07,NNE,21,0.0,0.0,85,0.00,,SKC,0.00,VWS V14.00,2013-02-05 10:51:00,
2013-02-05 05:56:00,-12.4,-15.7,30.07,NNE,21,0.0,0.0,85,0.00,,SKC,0.00,VWS V14.00,2013-02-05 10:56:00,
2013-02-05 06:00:00,-12.2,-15.5,30.07,NNE,21,0.0,0.0,85,0.00,,SCT,0.00,VWS V14.00,2013-02-05 11:00:00,
2013-02-05 06:01:00,-12.5,-15.9,30.07,NNE,21,0.0,0.0,84,0.00,,SKC,0.00,VWS V14.00,2013-02-05 11:01:00,
2013-02-05 06:06:00,-12.6,-16.1,30.07,NNE,21,0.0,0.0,84,0.00,,SKC,0.00,VWS V14.00,2013-02-05 11:06:00,
2013-02-05 06:11:00,-12.9,-16.4,30.07,NNE,21,0.0,0.0,84,0.00,,SKC,0.00,VWS V14.00,2013-02-05 11:11:00,
2013-02-05 06:16:00,-12.9,-16.5,30.07,NNE,21,0.0,0.0,84,0.00,,SKC,0.00,VWS V14.00,2013-02-05 11:16:00,
2013-02-05 06:21:00,-13.4,-17.0,30.07,NNE,21,0.0,0.0,83,0.00,,SKC,0.00,VWS V14.00,2013-02-05 11:21:00,
2013-02-05 06:26:00,-13.4,-17.0,30.07,NNE,21,0.0,0.0,83,0.00,,SKC,0.00,VWS V14.00,2013-02-05 11:26:00,
2013-02-05 06:30:00,-13.3,-16.9,30.07,NNE,21,0.0,0.0,83,0.00,,SCT,0.00,VWS V14.00,2013-02-05 11:30:00,
2013-02-05 06:31:00,-13.2,-16.6,30.07,NNE,21,0.0,0.0,84,0.00,,SKC,0.00,VWS V14.00,2013-02-05 11:31:00,
2013-02-05 06:36:00,-12.7,-16.0,30.07,NNE,21,0.0,0.0,85,0.00,,SKC,0.00,VWS V14.00,2013-02-05 11:36:00,
2013-02-05 06:41:00,-12.1,-15.4,30.07,NNE,21,0.0,0.0,85,0.00,,SKC,0.00,VWS V14.00,2013-02-05 11:41:00,
2013-02-05 06:46:00,-11.9,-15.3,30.07,NNE,21,0.0,0.0,84,0.00,,SKC,0.00,VWS V14.00,2013-02-05 11:46:00,
2013-02-05 06:51:00,-11.8,-15.2,30.07,NNE,21,0.0,0.0,84,0.00,,SKC,0.00,VWS V14.00,2013-02-05 11:51:00,
2013-02-05 06:56:00,-11.6,-15.0,30.08,NNE,21,0.0,0.0,84,0.00,,SKC,0.00,VWS V14.00,2013-02-05 11:56:00,
2013-02-05 07:00:00,-11.4,-14.8,30.08,NNE,21,0.0,0.0,84,0.00,,SCT,0.00,VWS V14.00,2013-02-05 12:00:00,
2013-02-05 07:01:00,-11.6,-15.1,30.08,NNE,21,0.0,0.0,84,0.00,,SKC,0.00,VWS V14.00,2013-02-05 12:01:00,
2013-02-05 07:06:00,-11.6,-15.1,30.08,NNE,21,0.0,0.0,84,0.00,,SKC,0.00,VWS V14.00,2013-02-05 12:06:00,
2013-02-05 07:11:00,-11.7,-15.3,30.08,NNE,21,0.0,0.0,84,0.00,,SKC,0.00,VWS V14.00,2013-02-05 12:11:00,
2013-02-05 07:16:00,-12.0,-15.6,30.08,NNE,21,0.0,0.0,84,0.00,,SKC,0.00,VWS V14.00,2013-02-05 12:16:00,
2013-02-05 07:21:00,-12.1,-15.6,30.08,NNE,21,0.0,0.0,84,0.00,,SKC,0.00,VWS V14.00,2013-02-05 12:21:00,
2013-02-05 07:26:00,-12.0,-15.4,30.08,NNE,21,0.0,0.0,84,0.00,,SKC,0.00,VWS V14.00,2013-02-05 12:26:00,
2013-02-05 07:30:00,-11.9,-15.3,30.08,NNE,21,0.0,0.0,84,0.00,,SCT,0.00,VWS V14.00,2013-02-05 12:30:00,
2013-02-05 07:31:00,-12.0,-15.4,30.08,NNE,21,0.0,0.0,84,0.00,,SKC,0.00,VWS V14.00,2013-02-05 12:31:00,
2013-02-05 07:36:00,-11.9,-15.3,30.08,NNE,21,0.0,0.0,84,0.00,,SKC,0.00,VWS V14.00,2013-02-05 12:36:00,
2013-02-05 07:41:00,-11.7,-15.2,30.09,NNE,21,0.0,0.0,84,0.00,,SKC,0.00,VWS V14.00,2013-02-05 12:41:00,
2013-02-05 07:46:00,-11.8,-15.1,30.09,NNE,21,0.0,0.0,85,0.00,,SKC,0.00,VWS V14.00,2013-02-05 12:46:00,
2013-02-05 07:51:00,-10.9,-14.2,30.09,NNE,21,0.0,0.0,85,0.00,,SKC,0.00,VWS V14.00,2013-02-05 12:51:00,
2013-02-05 07:56:00,-10.7,-14.0,30.09,NNE,21,0.0,0.0,85,0.00,,SKC,0.00,VWS V14.00,2013-02-05 12:56:00,
2013-02-05 08:00:00,-10.7,-14.0,30.09,NNE,21,0.0,0.0,85,0.00,,SCT,0.00,VWS V14.00,2013-02-05 13:00:00,
2013-02-05 08:01:00,-10.4,-13.8,30.09,NNE,21,0.0,0.0,85,0.00,,SKC,0.00,VWS V14.00,2013-02-05 13:01:00,
2013-02-05 08:06:00,-10.2,-13.6,30.09,NNE,21,0.0,0.0,85,0.00,,SKC,0.00,VWS V14.00,2013-02-05 13:06:00,
2013-02-05 08:11:00,-9.8,-13.1,30.09,NNE,21,0.0,0.0,85,0.00,,SKC,0.00,VWS V14.00,2013-02-05 13:11:00,
2013-02-05 08:16:00,-9.2,-12.5,30.09,NNE,21,0.0,0.0,85,0.00,,SKC,0.00,VWS V14.00,2013-02-05 13:16:00,
2013-02-05 08:21:00,-8.6,-11.8,30.09,NNE,21,0.0,0.0,85,0.00,,SKC,0.00,VWS V14.00,2013-02-05 13:21:00,
2013-02-05 08:26:00,-7.8,-11.0,30.09,NNE,21,0.0,0.0,86,0.00,,SKC,0.00,VWS V14.00,2013-02-05 13:26:00,
2013-02-05 08:30:00,-7.8,-11.0,30.09,NNE,21,0.0,0.0,86,0.00,,SCT,0.00,VWS V14.00,2013-02-05 13:30:00,
2013-02-05 08:31:00,-6.9,-10.1,30.09,NNE,21,0.0,0.0,86,0.00,,SKC,0.00,VWS V14.00,2013-02-05 13:31:00,
2013-02-05 08:36:00,-6.2,-9.3,30.09,NNE,21,0.0,0.0,86,0.00,,SKC,0.00,VWS V14.00,2013-02-05 13:36:00,
2013-02-05 08:41:00,-5.3,-8.2,30.09,NNE,21,0.0,0.0,87,0.00,,SKC,0.00,VWS V14.00,2013-02-05 13:41:00,
2013-02-05 08:46:00,-3.5,-6.1,30.08,NNE,21,0.0,0.0,88,0.00,,SKC,0.00,VWS V14.00,2013-02-05 13:46:00,
2013-02-05 08:51:00,-1.8,-4.3,30.08,NNE,21,0.0,0.0,89,0.00,,SKC,0.00,VWS V14.00,2013-02-05 13:51:00,
2013-02-05 08:56:00,-0.3,-2.8,30.08,NNE,21,0.0,0.0,89,0.00,,SKC,0.00,VWS V14.00,2013-02-05 13:56:00,
2013-02-05 09:00:00,-0.3,-2.8,30.08,NNE,21,0.0,0.0,89,0.00,,SCT,0.00,VWS V14.00,2013-02-05 14:00:00,
2013-02-05 09:01:00,1.0,-1.7,30.08,NNE,21,0.0,0.0,88,0.00,,SKC,0.00,VWS V14.00,2013-02-05 14:01:00,
2013-02-05 09:06:00,1.6,-1.3,30.08,NNE,21,0.0,0.0,87,0.00,,SKC,0.00,VWS V14.00,2013-02-05 14:06:00,
2013-02-05 09:11:00,2.4,-1.0,30.08,NNE,21,0.0,0.0,85,0.00,,SKC,0.00,VWS V14.00,2013-02-05 14:11:00,
2013-02-05 09:16:00,3.1,-1.4,30.08,SE,125,0.6,5.3,81,0.00,,SKC,0.00,VWS V14.00,2013-02-05 14:16:00,
2013-02-05 09:21:00,4.0,-1.3,30.08,South,172,2.3,5.7,78,0.00,,SKC,0.00,VWS V14.00,2013-02-05 14:21:00,
2013-02-05 09:26:00,5.0,-0.9,30.08,SSE,150,3.0,4.8,76,0.00,,SKC,0.00,VWS V14.00,2013-02-05 14:26:00,
2013-02-05 09:30:00,5.0,-0.8,30.08,SSE,162,4.8,5.7,76,0.00,,SCT,0.00,VWS V14.00,2013-02-05 14:30:00,
2013-02-05 09:31:00,5.9,0.3,30.08,SSE,158,0.0,4.8,77,0.00,,SKC,0.00,VWS V14.00,2013-02-05 14:31:00,
2013-02-05 09:36:00,6.8,-0.2,30.08,SE,132,0.7,5.4,72,0.00,,SKC,0.00,VWS V14.00,2013-02-05 14:36:00,
2013-02-05 09:41:00,7.3,0.4,30.08,SE,132,0.0,5.4,73,0.00,,SKC,0.00,VWS V14.00,2013-02-05 14:41:00,
2013-02-05 09:46:00,7.7,0.1,30.08,SE,132,0.0,5.4,70,0.00,,SKC,0.00,VWS V14.00,2013-02-05 14:46:00,
2013-02-05 09:51:00,8.2,0.3,30.08,SW,222,3.3,5.4,70,0.00,,SKC,0.00,VWS V14.00,2013-02-05 14:51:00,
2013-02-05 09:56:00,9.0,0.0,30.08,SSE,166,2.2,4.0,66,0.00,,SKC,0.00,VWS V14.00,2013-02-05 14:56:00,
2013-02-05 10:00:00,9.1,0.3,30.08,SE,131,3.8,5.4,67,0.00,,SCT,0.00,VWS V14.00,2013-02-05 15:00:00,
2013-02-05 10:01:00,9.6,-0.2,30.08,SW,236,0.0,4.8,64,0.00,,SKC,0.00,VWS V14.00,2013-02-05 15:01:00,
2013-02-05 10:06:00,9.8,-0.4,30.08,SW,224,2.9,6.2,63,0.00,,SKC,0.00,VWS V14.00,2013-02-05 15:06:00,
2013-02-05 10:11:00,10.2,-0.4,30.09,SSW,195,1.6,6.8,61,0.00,,SKC,0.00,VWS V14.00,2013-02-05 15:11:00,
2013-02-05 10:16:00,10.4,-1.5,30.09,SSW,212,4.8,7.3,58,0.00,,SKC,0.00,VWS V14.00,2013-02-05 15:16:00,
2013-02-05 10:21:00,10.8,-0.8,30.09,SSW,201,1.4,7.3,59,0.00,,SKC,0.00,VWS V14.00,2013-02-05 15:21:00,
2013-02-05 10:27:00,11.1,-0.5,30.08,SW,231,1.8,2.4,59,0.00,,SKC,0.00,VWS V14.00,2013-02-05 15:27:00,
2013-02-05 10:30:00,11.2,-0.4,30.08,SW,217,2.2,7.3,59,0.00,,SCT,0.00,VWS V14.00,2013-02-05 15:30:00,
2013-02-05 10:32:00,11.4,-1.4,30.08,South,176,6.8,8.8,56,0.00,,SKC,0.00,VWS V14.00,2013-02-05 15:32:00,
2013-02-05 10:37:00,12.0,-0.7,30.08,SSW,200,1.4,8.8,56,0.00,,SKC,0.00,VWS V14.00,2013-02-05 15:37:00,
2013-02-05 10:42:00,12.1,-2.1,30.08,SSW,200,4.8,8.8,52,0.00,,SKC,0.00,VWS V14.00,2013-02-05 15:42:00,
2013-02-05 10:47:00,12.5,-1.8,30.08,SSW,195,1.9,9.3,52,0.00,,SKC,0.00,VWS V14.00,2013-02-05 15:47:00,
2013-02-05 10:52:00,12.8,-1.5,30.08,SW,221,3.1,9.4,52,0.00,,SKC,0.00,VWS V14.00,2013-02-05 15:52:00,
2013-02-05 10:57:00,13.3,-1.1,30.07,SSW,210,1.7,3.7,52,0.00,,SKC,0.00,VWS V14.00,2013-02-05 15:57:00,
2013-02-05 11:00:00,13.1,-1.0,30.07,SE,125,3.2,9.4,52,0.00,,SCT,0.00,VWS V14.00,2013-02-05 16:00:00,
2013-02-05 11:02:00,13.4,-2.1,30.07,WSW,252,4.4,8.4,49,0.00,,SKC,0.00,VWS V14.00,2013-02-05 16:02:00,
2013-02-05 11:07:00,13.4,-2.1,30.07,SE,146,0.0,8.4,49,0.00,,SKC,0.00,VWS V14.00,2013-02-05 16:07:00,
2013-02-05 11:12:00,13.8,-1.4,30.07,South,180,3.1,8.4,50,0.00,,SKC,0.00,VWS V14.00,2013-02-05 16:12:00,
2013-02-05 11:17:00,13.9,-1.9,30.07,SW,215,7.8,8.4,49,0.00,,SKC,0.00,VWS V14.00,2013-02-05 16:17:00,
2013-02-05 11:22:00,14.3,-1.9,30.07,SSW,197,5.3,9.4,48,0.00,,SKC,0.00,VWS V14.00,2013-02-05 16:22:00,
2013-02-05 11:27:00,14.3,-1.3,30.07,SSE,159,5.9,7.6,49,0.00,,SKC,0.00,VWS V14.00,2013-02-05 16:27:00,
2013-02-05 11:30:00,14.4,-1.1,30.07,SSE,152,6.2,9.4,49,0.00,,SCT,0.00,VWS V14.00,2013-02-05 16:30:00,
2013-02-05 11:32:00,14.4,-1.8,30.07,SSW,211,6.3,8.8,48,0.00,,SKC,0.00,VWS V14.00,2013-02-05 16:32:00,
2013-02-05 11:37:00,14.8,-0.4,30.07,SSW,211,2.9,8.8,50,0.00,,SKC,0.00,VWS V14.00,2013-02-05 16:37:00,
2013-02-05 11:42:00,14.9,-0.4,30.06,SW,228,4.9,8.8,50,0.00,,SKC,0.00,VWS V14.00,2013-02-05 16:42:00,
2013-02-05 11:47:00,15.1,0.2,30.06,South,180,3.6,8.8,51,0.00,,SKC,0.00,VWS V14.00,2013-02-05 16:47:00,
2013-02-05 11:52:00,15.7,0.0,30.05,South,187,2.9,8.8,49,0.00,,SKC,0.00,VWS V14.00,2013-02-05 16:52:00,
2013-02-05 11:57:00,15.6,-1.7,30.05,SE,132,5.4,9.2,46,0.00,,SKC,0.00,VWS V14.00,2013-02-05 16:57:00,
2013-02-05 12:00:00,15.8,-1.2,30.05,SSE,162,8.5,8.8,46,0.00,,SCT,0.00,VWS V14.00,2013-02-05 17:00:00,
2013-02-05 12:02:00,16.2,0.2,30.05,South,177,4.8,9.2,48,0.00,,SKC,0.00,VWS V14.00,2013-02-05 17:02:00,
2013-02-05 12:07:00,16.6,-0.8,30.05,SSE,165,7.1,9.2,46,0.00,,SKC,0.00,VWS V14.00,2013-02-05 17:07:00,
2013-02-05 12:12:00,16.3,-1.0,30.05,SSE,148,6.6,9.2,46,0.00,,SKC,0.00,VWS V14.00,2013-02-05 17:12:00,
2013-02-05 12:17:00,16.7,-0.7,30.04,SW,217,3.8,9.2,46,0.00,,SKC,0.00,VWS V14.00,2013-02-05 17:17:00,
2013-02-05 12:22:00,16.7,-0.7,30.04,SW,217,8.1,9.2,46,0.00,,SKC,0.00,VWS V14.00,2013-02-05 17:22:00,
2013-02-05 12:27:00,16.9,-0.1,30.04,West,266,4.5,5.6,46,0.00,,SKC,0.00,VWS V14.00,2013-02-05 17:27:00,
2013-02-05 12:30:00,17.0,0.2,30.04,West,264,2.9,9.2,47,0.00,,SCT,0.00,VWS V14.00,2013-02-05 17:30:00,
2013-02-05 12:32:00,17.4,-0.5,30.04,WNW,283,4.1,6.3,45,0.00,,SKC,0.00,VWS V14.00,2013-02-05 17:32:00,
2013-02-05 12:37:00,17.7,0.6,30.04,SSE,162,0.0,8.0,46,0.00,,SKC,0.00,VWS V14.00,2013-02-05 17:37:00,
2013-02-05 12:42:00,17.9,-0.3,30.03,WSW,246,4.0,8.0,44,0.00,,SKC,0.00,VWS V14.00,2013-02-05 17:42:00,
2013-02-05 12:47:00,17.8,-0.5,30.03,SW,219,6.1,8.6,44,0.00,,SKC,0.00,VWS V14.00,2013-02-05 17:47:00,
2013-02-05 12:52:00,17.9,-0.3,30.03,SW,218,3.2,8.6,44,0.00,,SKC,0.00,VWS V14.00,2013-02-05 17:52:00,
2013-02-05 12:57:00,18.3,0.8,30.02,South,172,4.0,5.0,46,0.00,,SKC,0.00,VWS V14.00,2013-02-05 17:57:00,
2013-02-05 13:00:00,18.3,0.5,30.03,SSW,207,0.0,8.6,45,0.00,,SCT,0.00,VWS V14.00,2013-02-05 18:00:00,
2013-02-05 13:02:00,18.5,0.5,30.02,WSW,239,0.0,7.1,44,0.00,,SKC,0.00,VWS V14.00,2013-02-05 18:02:00,
2013-02-05 13:07:00,18.2,0.0,30.02,SE,142,4.0,7.1,44,0.00,,SKC,0.00,VWS V14.00,2013-02-05 18:07:00,
2013-02-05 13:12:00,18.3,0.4,30.02,SE,124,3.2,7.1,45,0.00,,SKC,0.00,VWS V14.00,2013-02-05 18:12:00,
2013-02-05 13:17:00,18.0,0.1,30.02,SSE,149,3.6,7.6,45,0.00,,SKC,0.00,VWS V14.00,2013-02-05 18:17:00,
2013-02-05 13:22:00,18.5,1.0,30.01,SW,236,0.0,7.8,46,0.00,,SKC,0.00,VWS V14.00,2013-02-05 18:22:00,
2013-02-05 13:27:00,18.3,0.3,30.01,West,259,1.1,2.9,44,0.00,,SKC,0.00,VWS V14.00,2013-02-05 18:27:00,
2013-02-05 13:30:00,18.5,0.3,30.01,NW,312,1.4,7.8,44,0.00,,SCT,0.00,VWS V14.00,2013-02-05 18:30:00,
2013-02-05 13:32:00,18.4,1.1,30.01,West,260,1.1,6.4,46,0.00,,SKC,0.00,VWS V14.00,2013-02-05 18:32:00,
2013-02-05 13:37:00,18.7,1.3,30.01,SSW,195,2.2,6.4,46,0.00,,SKC,0.00,VWS V14.00,2013-02-05 18:37:00,
2013-02-05 13:42:00,18.8,0.9,30.01,WSW,246,2.3,6.4,45,0.00,,BKN,0.00,VWS V14.00,2013-02-05 18:42:00,
2013-02-05 13:47:00,19.3,1.8,30.01,West,269,0.0,6.4,46,0.00,,BKN,0.00,VWS V14.00,2013-02-05 18:47:00,
2013-02-05 13:52:00,19.5,2.4,30.01,SW,215,0.6,6.4,47,0.00,,BKN,0.00,VWS V14.00,2013-02-05 18:52:00,
2013-02-05 13:57:00,19.5,2.2,30.00,SSW,212,1.0,1.7,46,0.00,,BKN,0.00,VWS V14.00,2013-02-05 18:57:00,
2013-02-05 14:00:00,19.5,2.0,30.00,ESE,108,1.0,6.4,46,0.00,,SCT,0.00,VWS V14.00,2013-02-05 19:00:00,
2013-02-05 14:02:00,19.3,1.5,30.00,West,262,0.8,6.2,45,0.00,,BKN,0.00,VWS V14.00,2013-02-05 19:02:00,
2013-02-05 14:07:00,19.4,1.4,30.00,West,273,0.5,6.2,45,0.00,,BKN,0.00,VWS V14.00,2013-02-05 19:07:00,
2013-02-05 14:12:00,19.7,1.6,30.00,WNW,285,3.1,6.2,45,0.00,,BKN,0.00,VWS V14.00,2013-02-05 19:12:00,
2013-02-05 14:17:00,20.0,2.4,30.00,ESE,115,0.0,6.2,46,0.00,,BKN,0.00,VWS V14.00,2013-02-05 19:17:00,
2013-02-05 14:22:00,20.6,3.2,30.00,SW,215,2.1,6.2,46,0.00,,BKN,0.00,VWS V14.00,2013-02-05 19:22:00,
2013-02-05 14:27:00,21.1,3.0,30.00,South,172,0.0,0.7,45,0.00,,BKN,0.00,VWS V14.00,2013-02-05 19:27:00,
2013-02-05 14:30:00,21.2,3.1,30.00,South,172,0.7,6.2,45,0.00,,SCT,0.00,VWS V14.00,2013-02-05 19:30:00,
2013-02-05 14:32:00,21.1,2.4,30.00,SSW,208,2.1,5.3,44,0.00,,BKN,0.00,VWS V14.00,2013-02-05 19:32:00,
2013-02-05 14:37:00,21.3,3.3,29.99,SE,124,0.0,5.3,45,0.00,,BKN,0.00,VWS V14.00,2013-02-05 19:37:00,
2013-02-05 14:42:00,22.1,4.3,29.99,SE,124,0.0,5.3,46,0.00,,BKN,0.00,VWS V14.00,2013-02-05 19:42:00,
2013-02-05 14:47:00,22.1,3.2,29.99,SE,124,0.0,5.3,43,0.00,,BKN,0.00,VWS V14.00,2013-02-05 19:47:00,
2013-02-05 14:52:00,22.2,2.5,29.99,WSW,243,0.0,5.3,42,0.00,,BKN,0.00,VWS V14.00,2013-02-05 19:52:00,
2013-02-05 14:57:00,22.4,3.6,29.99,SSE,159,2.9,3.0,44,0.00,,BKN,0.00,VWS V14.00,2013-02-05 19:57:00,
2013-02-05 15:00:00,22.3,3.2,29.99,WSW,243,0.0,5.3,43,0.00,,SCT,0.00,VWS V14.00,2013-02-05 20:00:00,
2013-02-05 15:02:00,22.4,3.3,29.99,SE,143,0.0,3.0,43,0.00,,BKN,0.00,VWS V14.00,2013-02-05 20:02:00,
2013-02-05 15:07:00,22.5,3.4,29.99,SE,143,0.0,3.0,43,0.00,,BKN,0.00,VWS V14.00,2013-02-05 20:07:00,
2013-02-05 15:12:00,22.6,3.1,29.99,SE,143,0.0,3.0,42,0.00,,BKN,0.00,VWS V14.00,2013-02-05 20:12:00,
2013-02-05 15:17:00,22.1,3.9,29.99,SE,136,0.0,3.0,45,0.00,,BKN,0.00,VWS V14.00,2013-02-05 20:17:00,
2013-02-05 15:22:00,21.9,3.2,29.98,SE,136,0.0,3.0,44,0.00,,BKN,0.00,VWS V14.00,2013-02-05 20:22:00,
2013-02-05 15:27:00,21.4,2.7,29.98,SE,136,0.0,0.0,44,0.00,,BKN,0.00,VWS V14.00,2013-02-05 20:27:00,
2013-02-05 15:30:00,21.5,2.4,29.98,SE,136,0.0,3.0,43,0.00,,SCT,0.00,VWS V14.00,2013-02-05 20:30:00,
2013-02-05 15:32:00,20.9,2.0,29.98,SE,136,0.0,0.0,43,0.00,,BKN,0.00,VWS V14.00,2013-02-05 20:32:00,
2013-02-05 15:37:00,20.6,2.0,29.98,SE,136,0.0,0.0,44,0.00,,BKN,0.00,VWS V14.00,2013-02-05 20:37:00,
2013-02-05 15:42:00,20.3,1.7,29.98,SE,136,0.0,0.0,44,0.00,,BKN,0.00,VWS V14.00,2013-02-05 20:42:00,
2013-02-05 15:47:00,20.2,1.9,29.98,SE,136,0.0,0.0,44,0.00,,BKN,0.00,VWS V14.00,2013-02-05 20:47:00,
2013-02-05 15:52:00,20.2,1.6,29.99,SE,136,0.0,0.0,44,0.00,,BKN,0.00,VWS V14.00,2013-02-05 20:52:00,
2013-02-05 15:57:00,20.3,2.0,29.98,SE,136,0.0,0.0,44,0.00,,BKN,0.00,VWS V14.00,2013-02-05 20:57:00,
2013-02-05 16:00:00,20.2,2.1,29.99,SE,136,0.0,0.0,45,0.00,,SCT,0.00,VWS V14.00,2013-02-05 21:00:00,
2013-02-05 16:02:00,20.2,2.3,29.98,SE,136,0.0,0.0,45,0.00,,BKN,0.00,VWS V14.00,2013-02-05 21:02:00,
2013-02-05 16:07:00,20.2,2.4,29.98,SE,136,0.0,0.0,45,0.00,,BKN,0.00,VWS V14.00,2013-02-05 21:07:00,
2013-02-05 16:12:00,20.2,2.4,29.98,SE,136,0.0,0.0,45,0.00,,BKN,0.00,VWS V14.00,2013-02-05 21:12:00,
2013-02-05 16:17:00,20.0,2.7,29.97,SE,136,0.0,0.0,46,0.00,,BKN,0.00,VWS V14.00,2013-02-05 21:17:00,
2013-02-05 16:23:00,20.2,2.4,29.97,SE,136,0.0,0.0,45,0.00,,BKN,0.00,VWS V14.00,2013-02-05 21:23:00,
2013-02-05 16:28:00,20.1,2.9,29.97,SE,136,0.0,0.0,46,0.00,,BKN,0.00,VWS V14.00,2013-02-05 21:28:00,
2013-02-05 16:30:00,20.3,2.7,29.97,SE,136,0.0,0.0,46,0.00,,SCT,0.00,VWS V14.00,2013-02-05 21:30:00,
2013-02-05 16:33:00,20.0,2.5,29.97,SE,136,0.0,0.0,46,0.00,,BKN,0.00,VWS V14.00,2013-02-05 21:33:00,
2013-02-05 16:38:00,20.0,3.1,29.97,SE,136,0.0,0.0,47,0.00,,BKN,0.00,VWS V14.00,2013-02-05 21:38:00,
2013-02-05 16:43:00,20.0,2.8,29.97,SE,136,0.0,0.0,47,0.00,,BKN,0.00,VWS V14.00,2013-02-05 21:43:00,
2013-02-05 16:48:00,19.9,3.0,29.97,SE,136,0.0,0.0,47,0.00,,BKN,0.00,VWS V14.00,2013-02-05 21:48:00,
2013-02-05 16:53:00,20.0,3.9,29.97,SE,136,0.0,0.0,49,0.00,,BKN,0.00,VWS V14.00,2013-02-05 21:53:00,
2013-02-05 16:58:00,19.8,3.2,29.97,SE,136,0.0,0.0,48,0.00,,BKN,0.00,VWS V14.00,2013-02-05 21:58:00,
2013-02-05 17:00:00,19.9,3.4,29.97,SE,136,0.0,0.0,48,0.00,,SCT,0.00,VWS V14.00,2013-02-05 22:00:00,
2013-02-05 17:03:00,19.8,3.2,29.97,SE,136,0.0,0.0,48,0.00,,BKN,0.00,VWS V14.00,2013-02-05 22:03:00,
2013-02-05 17:08:00,19.8,4.1,29.97,SE,136,0.0,0.0,50,0.00,,BKN,0.00,VWS V14.00,2013-02-05 22:08:00,
2013-02-05 17:13:00,19.5,4.1,29.97,SE,136,0.0,0.0,50,0.00,,BKN,0.00,VWS V14.00,2013-02-05 22:13:00,
2013-02-05 17:18:00,19.5,4.1,29.97,SE,136,0.0,0.0,50,0.00,,BKN,0.00,VWS V14.00,2013-02-05 22:18:00,
2013-02-05 17:23:00,19.4,4.6,29.96,SE,136,0.0,0.0,52,0.00,,BKN,0.00,VWS V14.00,2013-02-05 22:23:00,
2013-02-05 17:28:00,19.3,4.5,29.96,SE,136,0.0,0.0,52,0.00,,BKN,0.00,VWS V14.00,2013-02-05 22:28:00,
2013-02-05 17:30:00,19.4,4.7,29.96,SE,136,0.0,0.0,52,0.00,,SCT,0.00,VWS V14.00,2013-02-05 22:30:00,
2013-02-05 17:33:00,19.3,4.0,29.95,SE,136,0.0,0.0,51,0.00,,BKN,0.00,VWS V14.00,2013-02-05 22:33:00,
2013-02-05 17:38:00,19.2,4.1,29.95,SE,136,0.0,0.0,51,0.00,,BKN,0.00,VWS V14.00,2013-02-05 22:38:00,
2013-02-05 17:43:00,19.2,5.3,29.95,SE,136,0.0,0.0,54,0.00,,BKN,0.00,VWS V14.00,2013-02-05 22:43:00,
2013-02-05 17:48:00,19.1,5.8,29.95,SE,136,0.0,0.0,55,0.00,,BKN,0.00,VWS V14.00,2013-02-05 22:48:00,
2013-02-05 17:53:00,18.9,6.3,29.95,SE,136,0.0,0.0,57,0.00,,BKN,0.00,VWS V14.00,2013-02-05 22:53:00,
2013-02-05 17:58:00,18.7,6.1,29.95,SE,136,0.0,0.0,57,0.00,,BKN,0.00,VWS V14.00,2013-02-05 22:58:00,
2013-02-05 18:00:00,18.7,6.2,29.95,SE,136,0.0,0.0,57,0.00,,SCT,0.00,VWS V14.00,2013-02-05 23:00:00,
2013-02-05 18:03:00,18.6,6.5,29.95,SE,136,0.0,0.0,58,0.00,,BKN,0.00,VWS V14.00,2013-02-05 23:03:00,
2013-02-05 18:08:00,18.4,6.1,29.95,SE,136,0.0,0.0,58,0.00,,BKN,0.00,VWS V14.00,2013-02-05 23:08:00,
2013-02-05 18:13:00,18.4,6.0,29.95,SE,136,0.0,0.0,58,0.00,,OVC,0.00,VWS V14.00,2013-02-05 23:13:00,
2013-02-05 18:18:00,18.4,6.0,29.96,SE,136,0.0,0.0,58,0.00,,OVC,0.00,VWS V14.00,2013-02-05 23:18:00,
2013-02-05 18:23:00,18.3,6.6,29.95,SE,136,0.0,0.0,60,0.00,,OVC,0.00,VWS V14.00,2013-02-05 23:23:00,
2013-02-05 18:28:00,18.2,6.0,29.95,SE,136,0.0,0.0,58,0.00,,OVC,0.00,VWS V14.00,2013-02-05 23:28:00,
2013-02-05 18:30:00,18.3,6.4,29.95,SE,136,0.0,0.0,59,0.00,,SCT,0.00,VWS V14.00,2013-02-05 23:30:00,
2013-02-05 18:33:00,18.3,5.6,29.95,SE,136,0.0,0.0,57,0.00,,OVC,0.00,VWS V14.00,2013-02-05 23:33:00,
2013-02-05 18:38:00,18.3,6.1,29.95,SE,136,0.0,0.0,58,0.00,,OVC,0.00,VWS V14.00,2013-02-05 23:38:00,
2013-02-05 18:43:00,18.1,5.4,29.95,SE,136,0.0,0.0,57,0.00,,OVC,0.00,VWS V14.00,2013-02-05 23:43:00,
2013-02-05 18:48:00,18.2,6.0,29.95,SE,136,0.0,0.0,58,0.00,,OVC,0.00,VWS V14.00,2013-02-05 23:48:00,
2013-02-05 18:53:00,18.1,6.1,29.95,SE,136,0.0,0.0,59,0.00,,OVC,0.00,VWS V14.00,2013-02-05 23:53:00,
2013-02-05 18:58:00,18.1,6.2,29.95,SE,136,0.0,0.0,59,0.00,,OVC,0.00,VWS V14.00,2013-02-05 23:58:00,
2013-02-05 19:00:00,18.0,5.7,29.95,SE,136,0.0,0.0,58,0.00,,SCT,0.00,VWS V14.00,2013-02-06 00:00:00,
2013-02-05 19:03:00,17.9,6.2,29.95,SE,136,0.0,0.0,59,0.00,,OVC,0.00,VWS V14.00,2013-02-06 00:03:00,
2013-02-05 19:08:00,17.8,6.3,29.95,SE,136,0.0,0.0,60,0.00,,OVC,0.00,VWS V14.00,2013-02-06 00:08:00,
2013-02-05 19:13:00,17.7,5.8,29.96,SE,136,0.0,0.0,59,0.00,,OVC,0.00,VWS V14.00,2013-02-06 00:13:00,
2013-02-05 19:18:00,17.6,5.7,29.96,SE,136,0.0,0.0,59,0.00,,OVC,0.00,VWS V14.00,2013-02-06 00:18:00,
2013-02-05 19:23:00,17.4,5.3,29.95,SE,136,0.0,0.0,58,0.00,,OVC,0.00,VWS V14.00,2013-02-06 00:23:00,
2013-02-05 19:28:00,17.4,5.5,29.96,SE,136,0.0,0.0,59,0.00,,OVC,0.00,VWS V14.00,2013-02-06 00:28:00,
2013-02-05 19:30:00,17.5,5.5,29.96,SE,136,0.0,0.0,59,0.00,,SCT,0.00,VWS V14.00,2013-02-06 00:30:00,
2013-02-05 19:33:00,17.4,5.6,29.95,SE,136,0.0,0.0,59,0.00,,OVC,0.00,VWS V14.00,2013-02-06 00:33:00,
2013-02-05 19:38:00,17.2,5.2,29.95,SE,136,0.0,0.0,58,0.00,,OVC,0.00,VWS V14.00,2013-02-06 00:38:00,
2013-02-05 19:43:00,17.0,5.1,29.95,SE,136,0.0,0.0,59,0.00,,OVC,0.00,VWS V14.00,2013-02-06 00:43:00,
2013-02-05 19:48:00,16.9,5.0,29.95,SE,136,0.0,0.0,59,0.00,,OVC,0.00,VWS V14.00,2013-02-06 00:48:00,
2013-02-05 19:53:00,16.9,5.2,29.95,SE,136,0.0,0.0,59,0.00,,OVC,0.00,VWS V14.00,2013-02-06 00:53:00,
2013-02-05 19:58:00,16.7,5.2,29.96,SE,136,0.0,0.0,60,0.00,,OVC,0.00,VWS V14.00,2013-02-06 00:58:00,
2013-02-05 20:00:00,16.9,5.0,29.95,SE,136,0.0,0.0,59,0.00,,SCT,0.00,VWS V14.00,2013-02-06 01:00:00,
2013-02-05 20:03:00,16.7,5.5,29.95,NNE,24,0.0,1.0,61,0.00,,OVC,0.00,VWS V14.00,2013-02-06 01:03:00,
2013-02-05 20:08:00,16.6,5.9,29.95,NNE,24,0.0,1.0,62,0.00,,OVC,0.00,VWS V14.00,2013-02-06 01:08:00,
2013-02-05 20:13:00,16.5,6.3,29.95,NNE,24,0.0,1.0,63,0.00,,OVC,0.00,VWS V14.00,2013-02-06 01:13:00,
2013-02-05 20:18:00,16.5,6.6,29.95,NNE,24,0.0,1.0,64,0.00,,OVC,0.00,VWS V14.00,2013-02-06 01:18:00,
2013-02-05 20:23:00,16.4,5.8,29.95,NNE,24,0.0,1.0,62,0.00,,OVC,0.00,VWS V14.00,2013-02-06 01:23:00,
2013-02-05 20:28:00,16.5,6.0,29.95,NNE,24,0.0,0.0,63,0.00,,OVC,0.00,VWS V14.00,2013-02-06 01:28:00,
2013-02-05 20:30:00,16.4,6.1,29.95,NNE,24,0.0,1.0,63,0.00,,SCT,0.00,VWS V14.00,2013-02-06 01:30:00,
2013-02-05 20:33:00,16.5,5.8,29.95,NNE,24,0.0,0.0,62,0.00,,OVC,0.00,VWS V14.00,2013-02-06 01:33:00,
2013-02-05 20:38:00,16.6,6.0,29.95,NNE,24,0.0,0.0,62,0.00,,OVC,0.00,VWS V14.00,2013-02-06 01:38:00,
2013-02-05 20:43:00,16.4,5.7,29.95,NNE,24,0.0,0.0,62,0.00,,OVC,0.00,VWS V14.00,2013-02-06 01:43:00,
2013-02-05 20:48:00,16.3,5.5,29.95,NNE,24,0.0,0.0,62,0.00,,OVC,0.00,VWS V14.00,2013-02-06 01:48:00,
2013-02-05 20:53:00,16.4,5.4,29.95,NNE,24,0.0,0.0,61,0.00,,OVC,0.00,VWS V14.00,2013-02-06 01:53:00,
2013-02-05 20:58:00,16.4,5.6,29.95,NNE,24,0.0,0.0,62,0.00,,OVC,0.00,VWS V14.00,2013-02-06 01:58:00,
2013-02-05 21:00:00,16.4,5.5,29.95,NNE,24,0.0,0.0,62,0.00,,SCT,0.00,VWS V14.00,2013-02-06 02:00:00,
2013-02-05 21:03:00,16.2,5.6,29.95,NNE,24,0.0,0.0,62,0.00,,OVC,0.00,VWS V14.00,2013-02-06 02:03:00,
2013-02-05 21:08:00,16.2,5.7,29.95,NNE,24,0.0,0.0,63,0.00,,OVC,0.00,VWS V14.00,2013-02-06 02:08:00,
2013-02-05 21:13:00,16.2,5.9,29.95,NNE,24,0.0,0.0,63,0.00,,OVC,0.00,VWS V14.00,2013-02-06 02:13:00,
2013-02-05 21:18:00,16.3,6.1,29.95,NNE,24,0.0,0.0,64,0.00,,OVC,0.00,VWS V14.00,2013-02-06 02:18:00,
2013-02-05 21:23:00,16.1,6.3,29.95,NNE,24,0.0,0.0,65,0.00,,OVC,0.00,VWS V14.00,2013-02-06 02:23:00,
2013-02-05 21:29:00,16.0,6.0,29.95,NNE,24,0.0,0.0,64,0.00,,OVC,0.00,VWS V14.00,2013-02-06 02:29:00,
2013-02-05 21:30:00,16.0,5.7,29.95,NNE,24,0.0,0.0,63,0.00,,SCT,0.00,VWS V14.00,2013-02-06 02:30:00,
2013-02-05 21:34:00,16.0,6.9,29.95,NNE,24,0.0,0.0,67,0.00,,OVC,0.00,VWS V14.00,2013-02-06 02:34:00,
2013-02-05 21:39:00,16.0,6.6,29.95,NNE,24,0.0,0.0,66,0.00,,OVC,0.00,VWS V14.00,2013-02-06 02:39:00,
2013-02-05 21:44:00,15.9,6.9,29.95,NNE,24,0.0,0.0,67,0.00,,OVC,0.00,VWS V14.00,2013-02-06 02:44:00,
2013-02-05 21:49:00,16.0,6.8,29.95,NNE,24,0.0,0.0,66,0.00,,OVC,0.00,VWS V14.00,2013-02-06 02:49:00,
2013-02-05 21:54:00,15.8,6.5,29.95,NNE,24,0.0,0.0,66,0.00,,OVC,0.00,VWS V14.00,2013-02-06 02:54:00,
2013-02-05 21:59:00,15.9,6.7,29.95,NNE,24,0.0,0.0,66,0.00,,OVC,0.00,VWS V14.00,2013-02-06 02:59:00,
2013-02-05 22:00:00,15.8,6.5,29.95,NNE,24,0.0,0.0,66,0.00,,SCT,0.00,VWS V14.00,2013-02-06 03:00:00,
2013-02-05 22:04:00,15.7,6.6,29.95,NNE,24,0.0,0.0,67,0.00,,OVC,0.00,VWS V14.00,2013-02-06 03:04:00,
2013-02-05 22:09:00,15.9,6.6,29.94,NNE,24,0.0,0.0,66,0.00,,OVC,0.00,VWS V14.00,2013-02-06 03:09:00,
2013-02-05 22:14:00,15.8,7.2,29.94,NNE,24,0.0,0.0,68,0.00,,OVC,0.00,VWS V14.00,2013-02-06 03:14:00,
2013-02-05 22:19:00,15.6,6.9,29.94,NNE,24,0.0,0.0,68,0.00,,OVC,0.00,VWS V14.00,2013-02-06 03:19:00,
2013-02-05 22:24:00,15.7,6.8,29.94,NNE,24,0.0,0.0,67,0.00,,OVC,0.00,VWS V14.00,2013-02-06 03:24:00,
2013-02-05 22:29:00,15.6,6.9,29.94,NNE,24,0.0,0.0,68,0.00,,OVC,0.00,VWS V14.00,2013-02-06 03:29:00,
2013-02-05 22:30:00,15.7,7.3,29.94,NNE,24,0.0,0.0,69,0.00,,SCT,0.00,VWS V14.00,2013-02-06 03:30:00,
2013-02-05 22:34:00,15.4,6.7,29.94,NNE,24,0.0,0.0,68,0.00,,OVC,0.00,VWS V14.00,2013-02-06 03:34:00,
2013-02-05 22:39:00,15.5,7.1,29.93,NNE,24,0.0,0.0,69,0.00,,OVC,0.00,VWS V14.00,2013-02-06 03:39:00,
2013-02-05 22:44:00,15.6,7.1,29.93,NNE,24,0.0,0.0,68,0.00,,OVC,0.00,VWS V14.00,2013-02-06 03:44:00,
2013-02-05 22:49:00,15.5,7.0,29.93,NNE,24,0.0,0.0,69,0.00,,OVC,0.00,VWS V14.00,2013-02-06 03:49:00,
2013-02-05 22:54:00,15.6,7.1,29.93,NNE,24,0.0,0.0,68,0.00,,OVC,0.00,VWS V14.00,2013-02-06 03:54:00,
2013-02-05 22:59:00,15.7,7.3,29.93,NNE,24,0.0,0.0,69,0.00,,OVC,0.00,VWS V14.00,2013-02-06 03:59:00,
2013-02-05 23:00:00,15.7,7.2,29.93,NNE,24,0.0,0.0,68,0.00,,SCT,0.00,VWS V14.00,2013-02-06 04:00:00,
2013-02-05 23:04:00,15.7,7.2,29.93,NNE,24,0.0,0.0,68,0.00,,OVC,0.00,VWS V14.00,2013-02-06 04:04:00,
2013-02-05 23:09:00,15.9,7.4,29.93,NNE,24,0.0,0.0,68,0.00,,OVC,0.00,VWS V14.00,2013-02-06 04:09:00,
2013-02-05 23:14:00,15.8,7.7,29.93,NNE,24,0.0,0.0,70,0.00,,OVC,0.00,VWS V14.00,2013-02-06 04:14:00,
2013-02-05 23:19:00,15.9,8.0,29.93,NNE,24,0.0,0.0,70,0.00,,OVC,0.00,VWS V14.00,2013-02-06 04:19:00,
2013-02-05 23:24:00,15.7,8.0,29.93,NNE,24,0.0,0.0,71,0.00,,OVC,0.00,VWS V14.00,2013-02-06 04:24:00,
2013-02-05 23:29:00,15.7,8.2,29.93,NNE,24,0.0,0.0,72,0.00,,OVC,0.00,VWS V14.00,2013-02-06 04:29:00,
2013-02-05 23:30:00,15.8,8.2,29.93,NNE,24,0.0,0.0,71,0.00,,SCT,0.00,VWS V14.00,2013-02-06 04:30:00,
2013-02-05 23:34:00,15.7,8.6,29.92,NNE,24,0.0,0.0,73,0.00,,OVC,0.00,VWS V14.00,2013-02-06 04:34:00,
2013-02-05 23:39:00,15.6,8.7,29.92,NNE,24,0.0,0.0,74,0.00,,OVC,0.00,VWS V14.00,2013-02-06 04:39:00,
2013-02-05 23:44:00,15.5,8.7,29.92,NNE,24,0.0,0.0,74,0.00,,OVC,0.00,VWS V14.00,2013-02-06 04:44:00,
2013-02-05 23:49:00,15.6,8.8,29.92,NNE,24,0.0,0.0,74,0.00,,OVC,0.00,VWS V14.00,2013-02-06 04:49:00,
2013-02-05 23:54:00,15.5,8.9,29.92,NNE,24,0.0,0.0,75,0.00,,OVC,0.00,VWS V14.00,2013-02-06 04:54:00,